Time;durP1;ratioP1;P1;durP2;ratioP2;P2;SDS_P1;SDS_P2;PMS_P1;PMS_P2;Temp;Humidity;BMP_temperature;BMP_pressure;BME280_temperature;BME280_humidity;BME280_pressure;Samples;Min_cycle;Max_cycle;Signal;HPM_P1;HPM_P2
2021/12/26 00:01:23;;;;;;;284.03;112.63;;;-8.90;99.90;;;;;;10246058;28;20042;-85
2021/12/26 00:06:26;;;;;;;282.57;105.70;;;-8.90;99.90;;;;;;10247404;29;20647;-85
2021/12/26 00:11:28;;;;;;;301.73;111.97;;;-9.00;99.90;;;;;;10246338;28;20054;-87
2021/12/26 00:16:28;;;;;;;293.97;111.57;;;-9.10;99.90;;;;;;10255093;28;20042;-85
2021/12/26 00:21:29;;;;;;;295.33;112.53;;;-9.20;99.90;;;;;;10255250;28;20480;-87
2021/12/26 00:26:32;;;;;;;277.13;102.93;;;-9.20;99.90;;;;;;10246745;29;20479;-89
2021/12/26 00:31:33;;;;;;;280.93;106.77;;;-9.20;99.90;;;;;;10254342;28;20043;-87
2021/12/26 00:36:34;;;;;;;282.33;102.60;;;-9.20;99.90;;;;;;10258615;28;20451;-84
2021/12/26 00:41:35;;;;;;;251.50;94.07;;;-9.20;99.90;;;;;;10229416;29;20480;-86
2021/12/26 00:46:37;;;;;;;236.43;90.07;;;-9.30;99.90;;;;;;10272691;28;20047;-84
2021/12/26 00:51:37;;;;;;;222.70;80.97;;;-9.30;99.90;;;;;;10253766;28;20098;-88
2021/12/26 00:56:38;;;;;;;233.03;92.17;;;-9.20;99.90;;;;;;10259266;28;20114;-86
2021/12/26 01:01:39;;;;;;;228.17;79.47;;;-9.20;99.90;;;;;;10280699;28;20755;-89
2021/12/26 01:06:40;;;;;;;201.60;74.47;;;-9.20;99.90;;;;;;10251791;28;20059;-85
2021/12/26 01:11:50;;;;;;;186.67;70.73;;;-9.30;99.90;;;;;;10231259;29;20495;-85
2021/12/26 01:17:00;;;;;;;203.57;81.03;;;-9.30;99.90;;;;;;10241695;28;20122;-85
2021/12/26 01:22:01;;;;;;;217.80;84.83;;;-9.30;99.90;;;;;;10236477;28;20049;-84
2021/12/26 01:27:03;;;;;;;227.37;87.00;;;-9.40;99.90;;;;;;10248751;28;20475;-89
2021/12/26 01:32:05;;;;;;;296.80;108.43;;;-9.70;99.90;;;;;;10235060;28;20121;-86
2021/12/26 01:37:05;;;;;;;295.70;103.93;;;-9.80;99.90;;;;;;10235528;28;20027;-88
2021/12/26 01:42:08;;;;;;;283.20;97.17;;;-9.90;99.90;;;;;;10241259;28;20033;-86
2021/12/26 01:47:09;;;;;;;263.53;97.60;;;-10.00;99.90;;;;;;10248173;28;20056;-89
2021/12/26 01:52:10;;;;;;;203.10;76.73;;;-10.10;99.90;;;;;;10245450;28;20043;-85
2021/12/26 01:57:13;;;;;;;182.10;62.10;;;-10.20;99.90;;;;;;10243109;28;20031;-84
2021/12/26 02:02:15;;;;;;;181.67;65.97;;;-10.30;99.90;;;;;;10275226;28;20078;-85
2021/12/26 02:07:15;;;;;;;207.30;88.30;;;-10.20;99.90;;;;;;10234538;28;20027;-85
2021/12/26 02:12:16;;;;;;;215.87;81.83;;;-10.00;99.90;;;;;;10251475;28;20043;-87
2021/12/26 02:17:17;;;;;;;235.20;84.17;;;-9.60;99.90;;;;;;10243519;28;20047;-85
2021/12/26 02:22:25;;;;;;;345.17;123.73;;;-9.50;99.90;;;;;;10251636;28;20110;-86
2021/12/26 02:27:32;;;;;;;238.40;89.13;;;-9.50;99.90;;;;;;10233528;28;20019;-86
2021/12/26 02:32:33;;;;;;;229.53;87.50;;;-9.50;99.90;;;;;;10240688;28;20043;-85
2021/12/26 02:37:36;;;;;;;218.73;81.33;;;-9.70;99.90;;;;;;10245398;28;20023;-85
2021/12/26 02:42:37;;;;;;;248.87;94.27;;;-9.90;99.90;;;;;;10255614;28;20037;-84
2021/12/26 02:47:44;;;;;;;189.73;69.00;;;-9.90;99.90;;;;;;10253028;28;20055;-84
2021/12/26 02:52:46;;;;;;;177.33;62.00;;;-10.00;99.90;;;;;;10254694;28;20130;-85
2021/12/26 02:57:59;;;;;;;181.30;63.40;;;-10.20;99.90;;;;;;10253877;28;20796;-85
2021/12/26 03:03:03;;;;;;;169.63;58.53;;;-10.20;99.90;;;;;;10252633;28;20399;-85
2021/12/26 03:08:09;;;;;;;184.20;69.80;;;-10.30;99.90;;;;;;10248997;28;20038;-85
2021/12/26 03:13:15;;;;;;;162.60;65.80;;;-10.10;99.90;;;;;;10251873;28;20042;-84
2021/12/26 03:18:16;;;;;;;179.85;63.55;;;-9.80;99.90;;;;;;10284265;28;20503;-87
2021/12/26 03:23:20;;;;;;;177.50;67.93;;;-9.70;99.90;;;;;;10259611;28;20035;-84
2021/12/26 03:28:21;;;;;;;159.00;59.10;;;-9.60;99.90;;;;;;10251031;28;20422;-85
2021/12/26 03:33:22;;;;;;;148.10;55.33;;;-9.60;99.90;;;;;;10250368;28;20043;-84
2021/12/26 03:38:24;;;;;;;140.57;50.97;;;-9.60;99.90;;;;;;10248576;28;20027;-86
2021/12/26 03:43:26;;;;;;;118.20;45.63;;;-9.60;99.90;;;;;;10249396;28;20042;-85
2021/12/26 03:48:27;;;;;;;103.50;40.23;;;-9.60;99.90;;;;;;10285734;28;20047;-88
2021/12/26 03:53:28;;;;;;;102.23;36.53;;;-9.70;99.90;;;;;;10253263;28;20523;-86
2021/12/26 03:58:29;;;;;;;93.80;33.20;;;-9.70;99.90;;;;;;10236788;28;20023;-85
2021/12/26 04:03:30;;;;;;;82.57;31.07;;;-9.60;99.90;;;;;;10249044;28;20110;-86
2021/12/26 04:08:31;;;;;;;86.63;32.13;;;-9.40;99.90;;;;;;10247283;28;20106;-86
2021/12/26 04:13:31;;;;;;;73.70;26.20;;;-9.40;99.90;;;;;;10259379;28;20104;-84
2021/12/26 04:18:33;;;;;;;56.30;20.63;;;-9.40;99.90;;;;;;10261842;28;20395;-87
2021/12/26 04:23:34;;;;;;;67.83;21.43;;;-9.40;99.90;;;;;;10246984;28;20622;-84
2021/12/26 04:28:34;;;;;;;94.63;34.23;;;-9.20;99.90;;;;;;10261300;28;20026;-87
2021/12/26 04:33:35;;;;;;;85.83;32.13;;;-9.10;99.90;;;;;;10246794;28;20062;-89
2021/12/26 04:38:36;;;;;;;87.33;29.73;;;-9.20;99.90;;;;;;10229373;28;20113;-85
2021/12/26 04:43:37;;;;;;;72.13;25.27;;;-9.30;99.90;;;;;;10230397;28;20031;-85
2021/12/26 04:48:41;;;;;;;71.00;26.90;;;-9.50;99.90;;;;;;10262981;28;20047;-87
2021/12/26 04:53:42;;;;;;;86.97;29.43;;;-9.50;99.90;;;;;;10267250;28;20613;-86
2021/12/26 04:58:43;;;;;;;83.80;29.00;;;-9.30;99.90;;;;;;10266051;28;20037;-87
2021/12/26 05:03:44;;;;;;;81.63;27.33;;;-9.10;99.90;;;;;;10267859;28;20390;-91
2021/12/26 05:08:44;;;;;;;116.77;38.00;;;-9.10;99.90;;;;;;10255871;28;20022;-85
2021/12/26 05:13:45;;;;;;;110.90;38.60;;;-9.30;99.90;;;;;;10271563;28;20134;-85
2021/12/26 05:18:46;;;;;;;96.27;39.10;;;-9.40;99.90;;;;;;10269422;28;20030;-86
2021/12/26 05:23:46;;;;;;;84.40;29.07;;;-9.60;99.90;;;;;;10264166;28;20038;-82
2021/12/26 05:28:47;;;;;;;76.23;26.83;;;-9.70;99.90;;;;;;10275163;28;20070;-83
2021/12/26 05:33:48;;;;;;;76.97;25.00;;;-9.90;99.90;;;;;;10261676;28;20043;-85
2021/12/26 05:38:48;;;;;;;79.43;27.83;;;-10.10;99.90;;;;;;10252506;28;20035;-88
2021/12/26 05:43:49;;;;;;;83.57;29.67;;;-10.10;99.90;;;;;;10252223;29;20122;-84
2021/12/26 05:48:50;;;;;;;85.70;28.37;;;-9.90;99.90;;;;;;10273026;28;20062;-85
2021/12/26 05:53:51;;;;;;;259.47;74.40;;;-9.90;99.90;;;;;;10249429;29;20452;-84
2021/12/26 05:58:51;;;;;;;81.90;29.60;;;-10.00;99.90;;;;;;10209803;28;20039;-85
2021/12/26 06:03:52;;;;;;;99.50;38.27;;;-10.10;99.90;;;;;;10244417;28;20055;-85
2021/12/26 06:08:53;;;;;;;124.63;35.77;;;-10.30;99.90;;;;;;10251481;28;20027;-81
2021/12/26 06:13:54;;;;;;;53.87;20.13;;;-10.30;99.90;;;;;;10279947;28;20627;-82
2021/12/26 06:18:54;;;;;;;57.73;18.73;;;-10.30;99.90;;;;;;10269363;28;20042;-82
2021/12/26 06:23:55;;;;;;;54.27;20.70;;;-10.30;99.90;;;;;;10233902;29;20030;-82
2021/12/26 06:28:56;;;;;;;63.10;20.83;;;-10.30;99.90;;;;;;10250332;28;20035;-82
2021/12/26 06:33:57;;;;;;;68.33;20.97;;;-10.30;99.90;;;;;;10273834;28;20031;-83
2021/12/26 06:38:57;;;;;;;63.80;21.77;;;-10.30;99.90;;;;;;10271641;28;20035;-86
2021/12/26 06:43:58;;;;;;;68.50;20.03;;;-10.20;99.90;;;;;;10274422;28;20479;-82
2021/12/26 06:48:59;;;;;;;45.83;16.13;;;-10.20;99.90;;;;;;10232158;29;20059;-85
2021/12/26 06:54:00;;;;;;;57.13;18.70;;;-10.30;99.90;;;;;;10249366;28;20079;-82
2021/12/26 06:59:00;;;;;;;50.87;14.87;;;-10.20;99.90;;;;;;10249460;29;20027;-82
2021/12/26 07:04:01;;;;;;;46.70;16.23;;;-10.30;99.90;;;;;;10249335;29;20028;-85
2021/12/26 07:09:02;;;;;;;64.97;20.43;;;-10.30;99.90;;;;;;10248379;29;20130;-82
2021/12/26 07:14:03;;;;;;;73.53;26.03;;;-10.40;99.90;;;;;;10248938;29;20039;-82
2021/12/26 07:19:03;;;;;;;81.00;29.30;;;-10.40;99.90;;;;;;10248075;28;20019;-82
2021/12/26 07:24:05;;;;;;;101.07;32.40;;;-10.20;99.90;;;;;;10247986;28;20027;-85
2021/12/26 07:29:05;;;;;;;114.10;35.30;;;-10.10;99.90;;;;;;10247636;28;20027;-81
2021/12/26 07:34:06;;;;;;;107.63;39.23;;;-10.00;99.90;;;;;;10248568;29;20038;-89
2021/12/26 07:39:08;;;;;;;120.87;39.67;;;-9.70;99.90;;;;;;10230322;29;20375;-81
2021/12/26 07:44:08;;;;;;;133.00;41.70;;;-9.40;99.90;;;;;;10225213;29;20042;-83
2021/12/26 07:49:09;;;;;;;258.07;84.60;;;-9.20;99.90;;;;;;10220334;28;20048;-88
2021/12/26 07:54:13;;;;;;;279.70;94.10;;;-9.00;99.90;;;;;;10239214;28;20133;-86
2021/12/26 07:59:14;;;;;;;172.00;65.30;;;-8.90;99.90;;;;;;10229604;28;20171;-85
2021/12/26 08:04:15;;;;;;;112.50;39.37;;;-8.80;99.90;;;;;;10230857;29;20126;-85
2021/12/26 08:09:15;;;;;;;131.40;46.13;;;-8.60;99.90;;;;;;10245172;29;20061;-86
2021/12/26 08:14:16;;;;;;;106.63;37.77;;;-8.40;99.90;;;;;;10245732;29;20134;-84
2021/12/26 08:19:17;;;;;;;115.27;41.47;;;-8.10;99.90;;;;;;10232772;28;20101;-87
2021/12/26 08:24:18;;;;;;;119.60;44.70;;;-7.90;99.90;;;;;;10247696;29;20126;-85
2021/12/26 08:29:21;;;;;;;107.23;38.77;;;-7.60;99.90;;;;;;10229715;29;20027;-85
2021/12/26 08:34:23;;;;;;;90.43;32.57;;;-7.40;99.90;;;;;;10252815;28;20039;-87
2021/12/26 08:39:25;;;;;;;250.40;77.57;;;-7.20;99.90;;;;;;10255476;29;20030;-87
2021/12/26 08:44:26;;;;;;;102.40;38.47;;;-7.00;99.90;;;;;;10252774;28;20395;-84
2021/12/26 08:49:27;;;;;;;807.60;300.00;;;-6.70;99.90;;;;;;10236113;29;20109;-84
2021/12/26 08:54:29;;;;;;;112.70;43.53;;;-6.40;99.90;;;;;;10254644;29;20035;-91
2021/12/26 08:59:30;;;;;;;167.97;59.07;;;-6.20;99.90;;;;;;10253010;29;20499;-84
2021/12/26 09:04:31;;;;;;;833.17;303.20;;;-6.00;99.90;;;;;;10252604;29;20122;-85
2021/12/26 09:09:32;;;;;;;1248.03;446.03;;;-5.80;99.90;;;;;;10251931;28;20278;-82
2021/12/26 09:14:33;;;;;;;252.20;84.80;;;-5.40;99.90;;;;;;10236009;28;20271;-86
2021/12/26 09:19:34;;;;;;;215.87;76.67;;;-5.10;99.90;;;;;;10252771;28;20083;-85
2021/12/26 09:24:36;;;;;;;332.47;112.47;;;-4.70;99.90;;;;;;10253199;29;20038;-85
2021/12/26 09:29:37;;;;;;;93.10;38.50;;;-4.40;99.90;;;;;;10235573;29;20463;-82
2021/12/26 09:34:38;;;;;;;279.37;103.67;;;-4.50;99.90;;;;;;10243980;28;20046;-85
2021/12/26 09:39:39;;;;;;;264.37;96.80;;;-4.50;99.90;;;;;;10234841;29;20030;-87
2021/12/26 09:45:04;;;;;;;165.40;68.57;;;-4.10;99.90;;;;;;10232413;28;20039;-88
2021/12/26 09:50:13;;;;;;;210.60;77.53;;;-3.90;99.90;;;;;;10249747;29;20075;-86
2021/12/26 09:55:33;;;;;;;223.37;89.17;;;-3.70;99.90;;;;;;10248075;28;20514;-85
2021/12/26 10:00:39;;;;;;;173.13;64.17;;;-3.50;99.90;;;;;;10225886;29;20049;-86
2021/12/26 10:06:17;;;;;;;212.37;74.33;;;-3.40;99.90;;;;;;10230243;28;20038;-83
2021/12/26 10:11:19;;;;;;;454.77;211.40;;;-3.10;99.90;;;;;;10248224;28;20039;-87
2021/12/26 10:16:23;;;;;;;141.60;56.97;;;-2.90;99.90;;;;;;10232201;28;20033;-85
2021/12/26 10:21:42;;;;;;;177.13;77.53;;;-2.80;99.90;;;;;;10235985;28;20018;-89
2021/12/26 10:26:56;;;;;;;121.13;49.53;;;-2.60;99.90;;;;;;10220750;28;20114;-84
2021/12/26 10:32:03;;;;;;;124.33;45.73;;;-2.50;99.90;;;;;;10237605;28;20047;-86
2021/12/26 10:37:10;;;;;;;84.53;33.27;;;-2.30;99.90;;;;;;10230425;28;20031;-89
2021/12/26 10:42:20;;;;;;;189.70;67.00;;;-2.20;99.90;;;;;;10234534;28;20031;-87
2021/12/26 10:47:24;;;;;;;85.70;34.87;;;-2.00;99.90;;;;;;10226833;28;20110;-83
2021/12/26 10:52:32;;;;;;;110.77;41.07;;;-2.00;99.90;;;;;;10218190;28;20044;-86
2021/12/26 10:57:42;;;;;;;120.80;44.97;;;-1.90;99.90;;;;;;10231586;28;20023;-83
2021/12/26 11:02:49;;;;;;;72.77;28.37;;;-1.70;99.90;;;;;;10226750;28;20035;-90
2021/12/26 11:08:04;;;;;;;99.13;39.23;;;-1.70;99.90;;;;;;10231694;28;20488;-86
2021/12/26 11:13:20;;;;;;;125.90;46.87;;;-1.70;99.90;;;;;;10235650;28;20122;-87
2021/12/26 11:18:23;;;;;;;114.17;44.47;;;-1.80;99.90;;;;;;10237188;28;20094;-83
2021/12/26 11:23:26;;;;;;;93.80;39.40;;;-1.90;99.90;;;;;;10220039;28;20033;-86
2021/12/26 11:28:31;;;;;;;88.67;33.83;;;-1.90;99.90;;;;;;10240464;28;20145;-82
2021/12/26 11:33:33;;;;;;;97.33;33.73;;;-1.80;99.90;;;;;;10240243;28;20550;-86
2021/12/26 11:38:35;;;;;;;85.63;33.37;;;-1.80;99.90;;;;;;10238682;28;20394;-83
2021/12/26 11:43:46;;;;;;;62.10;24.47;;;-1.50;99.90;;;;;;10230003;28;20056;-83
2021/12/26 11:49:01;;;;;;;84.50;29.73;;;-1.40;99.90;;;;;;10233541;28;20066;-84
2021/12/26 11:54:33;;;;;;;94.25;34.45;;;-1.20;99.90;;;;;;10224586;28;20050;-85
2021/12/26 12:00:09;;;;;;;65.63;23.47;;;-1.00;99.90;;;;;;10228289;28;20036;-83
2021/12/26 12:05:13;;;;;;;73.60;25.27;;;-0.90;99.90;;;;;;10236079;28;20110;-81
2021/12/26 12:10:47;;;;;;;58.40;19.50;;;-0.90;99.90;;;;;;10235763;28;20402;-85
2021/12/26 12:15:53;;;;;;;43.67;14.17;;;-0.90;99.90;;;;;;10232399;28;20047;-86
2021/12/26 12:21:18;;;;;;;60.67;22.05;;;-0.90;99.90;;;;;;10232741;28;20037;-83
2021/12/26 12:26:45;;;;;;;103.70;37.07;;;-0.90;99.90;;;;;;10240742;28;20019;-80
2021/12/26 12:31:46;;;;;;;62.10;22.77;;;-0.60;99.90;;;;;;10237421;28;20380;-81
2021/12/26 12:36:47;;;;;;;58.30;19.67;;;-0.60;99.90;;;;;;10242298;28;20027;-81
2021/12/26 12:41:53;;;;;;;49.00;17.20;;;-0.70;99.90;;;;;;10250739;28;20468;-83
2021/12/26 12:46:56;;;;;;;;;;;-0.60;99.90;;;;;;10236558;28;20051;-83
2021/12/26 12:51:56;;;;;;;31.83;11.33;;;-0.60;99.90;;;;;;10241229;28;19914;-82
2021/12/26 12:57:00;;;;;;;44.73;15.90;;;-0.70;99.90;;;;;;10228988;28;20493;-82
2021/12/26 13:02:02;;;;;;;28.47;10.43;;;-0.70;99.90;;;;;;10247015;28;20027;-81
2021/12/26 13:07:05;;;;;;;24.77;9.20;;;-0.90;99.90;;;;;;10239827;28;20057;-82
2021/12/26 13:12:11;;;;;;;25.97;8.10;;;-0.90;99.90;;;;;;10215154;28;20063;-83
2021/12/26 13:17:32;;;;;;;18.03;7.00;;;-1.10;99.90;;;;;;10234119;28;20023;-83
2021/12/26 13:22:46;;;;;;;42.73;16.20;;;-1.20;99.90;;;;;;10237908;28;20030;-81
2021/12/26 13:27:46;;;;;;;23.00;9.23;;;-1.30;99.90;;;;;;10245976;29;20166;-86
2021/12/26 13:32:48;;;;;;;117.20;50.90;;;-1.30;99.90;;;;;;10250161;28;20114;-83
2021/12/26 13:37:49;;;;;;;490.03;207.27;;;-1.40;99.90;;;;;;10236977;28;20039;-87
2021/12/26 13:42:52;;;;;;;997.53;454.37;;;-1.50;99.90;;;;;;10251400;28;20158;-86
2021/12/26 13:47:54;;;;;;;710.83;288.67;;;-1.60;99.90;;;;;;10259402;28;20059;-86
2021/12/26 13:53:09;;;;;;;308.00;180.87;;;-1.80;99.90;;;;;;10219356;29;20138;-86
2021/12/26 13:58:12;;;;;;;178.37;75.07;;;-2.00;99.90;;;;;;10243084;28;20479;-82
2021/12/26 14:03:13;;;;;;;761.07;339.63;;;-2.10;99.90;;;;;;10249030;28;20475;-82
2021/12/26 14:08:26;;;;;;;523.93;219.37;;;-2.40;99.90;;;;;;10234367;28;20029;-83
2021/12/26 14:13:31;;;;;;;314.10;124.37;;;-2.50;99.90;;;;;;10247203;28;20319;-85
2021/12/26 14:18:38;;;;;;;169.30;62.90;;;-2.70;99.90;;;;;;10242274;28;20483;-88
2021/12/26 14:23:41;;;;;;;82.33;32.77;;;-2.90;99.90;;;;;;10245303;28;20032;-82
2021/12/26 14:28:53;;;;;;;77.10;26.97;;;-3.10;99.90;;;;;;10242994;28;20078;-83
2021/12/26 14:33:53;;;;;;;99.80;30.73;;;-3.40;99.90;;;;;;10238872;28;20051;-85
2021/12/26 14:38:57;;;;;;;145.97;43.93;;;-3.70;99.90;;;;;;10248681;28;20600;-87
2021/12/26 14:43:57;;;;;;;188.80;57.17;;;-4.00;99.90;;;;;;10238253;28;20448;-83
2021/12/26 14:49:08;;;;;;;160.60;48.80;;;-4.20;99.90;;;;;;10227535;29;20110;-84
2021/12/26 14:54:11;;;;;;;223.63;63.87;;;-4.50;99.90;;;;;;10226192;29;20042;-86
2021/12/26 14:59:30;;;;;;;138.57;45.00;;;-4.70;99.90;;;;;;10265061;28;20086;-83
2021/12/26 15:04:31;;;;;;;54.57;16.90;;;-4.80;99.90;;;;;;10239710;28;20031;-87
2021/12/26 15:09:42;;;;;;;29.07;11.57;;;-5.00;99.90;;;;;;10251152;28;20034;-86
2021/12/26 15:14:44;;;;;;;33.00;12.27;;;-5.10;99.90;;;;;;10243522;28;20034;-84
2021/12/26 15:19:46;;;;;;;36.43;13.33;;;-5.30;99.90;;;;;;10229967;28;20273;-83
2021/12/26 15:24:52;;;;;;;50.40;17.07;;;-5.40;99.90;;;;;;10230280;28;20031;-84
2021/12/26 15:29:54;;;;;;;37.93;12.60;;;-5.50;99.90;;;;;;10244723;28;20023;-85
2021/12/26 15:34:55;;;;;;;30.37;12.63;;;-5.40;99.90;;;;;;10249570;28;20050;-84
2021/12/26 15:40:07;;;;;;;30.10;9.43;;;-5.30;99.90;;;;;;10246156;28;20082;-83
2021/12/26 15:45:08;;;;;;;28.67;9.33;;;-5.30;99.90;;;;;;10241561;28;20119;-83
2021/12/26 15:50:10;;;;;;;26.43;9.53;;;-5.30;99.90;;;;;;10259679;28;20051;-88
2021/12/26 15:55:12;;;;;;;32.03;10.67;;;-5.40;99.90;;;;;;10229570;28;20087;-84
2021/12/26 16:00:45;;;;;;;40.13;13.43;;;-5.40;99.90;;;;;;10233619;28;20118;-84
2021/12/26 16:05:46;;;;;;;33.13;12.50;;;-5.60;99.90;;;;;;10229315;28;20478;-85
2021/12/26 16:10:49;;;;;;;37.10;14.57;;;-5.70;99.90;;;;;;10224915;28;20035;-88
2021/12/26 16:15:50;;;;;;;54.97;18.77;;;-5.90;99.90;;;;;;10232449;28;20039;-84
2021/12/26 16:20:53;;;;;;;51.37;18.47;;;-6.00;99.90;;;;;;10236186;28;20039;-83
2021/12/26 16:25:54;;;;;;;45.40;14.83;;;-6.10;99.90;;;;;;10245259;28;20105;-83
2021/12/26 16:30:55;;;;;;;47.60;16.67;;;-6.10;99.90;;;;;;10251375;28;20035;-85
2021/12/26 16:35:56;;;;;;;47.43;17.87;;;-6.00;99.90;;;;;;10227977;28;20038;-87
2021/12/26 16:40:58;;;;;;;59.70;19.67;;;-6.00;99.90;;;;;;10229005;28;20384;-84
2021/12/26 16:45:59;;;;;;;76.93;27.17;;;-6.10;99.90;;;;;;10237247;28;20042;-85
2021/12/26 16:50:59;;;;;;;72.57;26.93;;;-6.10;99.90;;;;;;10244213;29;20047;-84
2021/12/26 16:56:01;;;;;;;69.90;24.90;;;-6.20;99.90;;;;;;10233464;28;20051;-82
2021/12/26 17:01:02;;;;;;;73.67;25.63;;;-6.20;99.90;;;;;;10243417;28;20416;-82
2021/12/26 17:06:04;;;;;;;73.50;24.60;;;-6.40;99.90;;;;;;10243444;29;20023;-84
2021/12/26 17:11:07;;;;;;;81.33;28.20;;;-6.60;99.90;;;;;;10231408;28;20066;-82
2021/12/26 17:16:08;;;;;;;109.37;41.57;;;-6.70;99.90;;;;;;10235839;28;20023;-82
2021/12/26 17:21:09;;;;;;;120.77;39.23;;;-6.90;99.90;;;;;;10245657;28;20032;-82
2021/12/26 17:26:11;;;;;;;95.27;33.93;;;-7.10;99.90;;;;;;10237039;29;20026;-83
2021/12/26 17:31:14;;;;;;;90.70;31.90;;;-7.10;99.90;;;;;;10236433;28;20114;-81
2021/12/26 17:36:15;;;;;;;83.50;30.57;;;-7.20;99.90;;;;;;10238913;28;20475;-88
2021/12/26 17:41:16;;;;;;;96.33;34.20;;;-7.20;99.90;;;;;;10227767;28;20077;-81
2021/12/26 17:46:18;;;;;;;87.17;31.27;;;-7.40;99.90;;;;;;10238233;28;20742;-82
2021/12/26 17:51:21;;;;;;;96.43;34.73;;;-7.60;99.90;;;;;;10237939;28;20419;-83
2021/12/26 17:56:22;;;;;;;103.37;37.83;;;-7.70;99.90;;;;;;10243717;28;20039;-83
2021/12/26 18:01:24;;;;;;;122.47;45.00;;;-7.90;99.90;;;;;;10251268;28;20035;-85
2021/12/26 18:06:25;;;;;;;117.70;41.27;;;-8.00;99.90;;;;;;10237863;28;20035;-82
2021/12/26 18:11:26;;;;;;;116.13;43.13;;;-8.10;99.90;;;;;;10249933;29;20047;-82
2021/12/26 18:16:27;;;;;;;110.43;40.60;;;-8.10;99.90;;;;;;10240417;28;20035;-83
2021/12/26 18:21:31;;;;;;;112.43;40.43;;;-8.20;99.90;;;;;;10240767;28;20035;-86
2021/12/26 18:26:32;;;;;;;115.53;41.90;;;-8.30;99.90;;;;;;10235080;28;20055;-88
2021/12/26 18:31:33;;;;;;;107.73;38.33;;;-8.30;99.90;;;;;;10249702;28;20053;-84
2021/12/26 18:36:34;;;;;;;109.87;41.00;;;-8.30;99.90;;;;;;10250540;28;20597;-85
2021/12/26 18:41:35;;;;;;;106.23;38.27;;;-8.30;99.90;;;;;;10233094;29;20397;-82
2021/12/26 18:46:36;;;;;;;99.63;33.97;;;-8.50;99.90;;;;;;10258377;28;20051;-86
2021/12/26 18:51:37;;;;;;;107.00;34.63;;;-8.50;99.90;;;;;;10229789;28;20042;-82
2021/12/26 18:56:37;;;;;;;108.10;38.17;;;-8.40;99.90;;;;;;10238117;28;20031;-89
2021/12/26 19:01:38;;;;;;;138.67;60.63;;;-8.40;99.90;;;;;;10260221;28;20486;-80
2021/12/26 19:06:41;;;;;;;98.63;38.63;;;-8.40;99.90;;;;;;10237306;28;20027;-82
2021/12/26 19:11:42;;;;;;;98.57;36.23;;;-8.50;99.90;;;;;;10225739;29;20126;-84
2021/12/26 19:16:45;;;;;;;105.67;39.60;;;-8.60;99.90;;;;;;10238521;28;20038;-82
2021/12/26 19:21:47;;;;;;;97.93;38.57;;;-8.60;99.90;;;;;;10233221;28;20023;-83
2021/12/26 19:26:48;;;;;;;106.87;38.53;;;-8.60;99.90;;;;;;10249977;28;20030;-84
2021/12/26 19:31:49;;;;;;;94.53;36.23;;;-8.60;99.90;;;;;;10247932;28;20051;-85
2021/12/26 19:36:50;;;;;;;92.23;32.63;;;-8.50;99.90;;;;;;10246011;28;20126;-86
2021/12/26 19:41:51;;;;;;;78.10;30.47;;;-8.60;99.90;;;;;;10256213;28;20045;-86
2021/12/26 19:46:54;;;;;;;131.40;45.07;;;-8.60;99.90;;;;;;10227050;28;20059;-83
2021/12/26 19:51:55;;;;;;;110.13;40.40;;;-8.60;99.90;;;;;;10239524;28;20506;-82
2021/12/26 19:56:58;;;;;;;145.47;48.50;;;-8.60;99.90;;;;;;10228259;28;20040;-85
2021/12/26 20:01:58;;;;;;;147.53;50.93;;;-8.60;99.90;;;;;;10246366;28;20030;-86
2021/12/26 20:06:59;;;;;;;127.50;47.47;;;-8.60;99.90;;;;;;10236804;28;20489;-84
2021/12/26 20:12:01;;;;;;;137.83;47.93;;;-8.60;99.90;;;;;;10220419;28;20035;-87
2021/12/26 20:17:03;;;;;;;128.03;45.10;;;-8.60;99.90;;;;;;10239453;28;20042;-84
2021/12/26 20:22:04;;;;;;;129.87;49.47;;;-8.50;99.90;;;;;;10241516;28;20045;-85
2021/12/26 20:27:06;;;;;;;147.73;49.93;;;-8.50;99.90;;;;;;10238538;28;20108;-79
2021/12/26 20:32:07;;;;;;;139.40;51.87;;;-8.50;99.90;;;;;;10241981;28;20058;-82
2021/12/26 20:37:09;;;;;;;113.73;43.47;;;-8.60;99.90;;;;;;10234008;29;20510;-83
2021/12/26 20:42:10;;;;;;;137.27;53.03;;;-8.70;99.90;;;;;;10223401;28;20020;-85
2021/12/26 20:47:11;;;;;;;124.30;43.73;;;-8.70;99.90;;;;;;10234157;28;20463;-83
2021/12/26 20:52:12;;;;;;;116.23;44.23;;;-8.60;99.90;;;;;;10242450;28;20050;-86
2021/12/26 20:57:13;;;;;;;116.23;40.60;;;-8.70;99.90;;;;;;10242896;28;20730;-88
2021/12/26 21:02:14;;;;;;;106.73;39.83;;;-8.60;99.90;;;;;;10223958;28;20083;-85
2021/12/26 21:07:15;;;;;;;115.23;41.47;;;-8.60;99.90;;;;;;10231866;28;20062;-85
2021/12/26 21:12:16;;;;;;;106.00;37.47;;;-8.60;99.90;;;;;;10244460;28;20046;-87
2021/12/26 21:17:17;;;;;;;96.33;35.63;;;-8.60;99.90;;;;;;10261129;28;20527;-85
2021/12/26 21:22:17;;;;;;;109.27;38.27;;;-8.60;99.90;;;;;;10240507;28;20036;-86
2021/12/26 21:27:18;;;;;;;122.20;42.33;;;-8.60;99.90;;;;;;10239596;28;20102;-82
2021/12/26 21:32:19;;;;;;;118.20;42.37;;;-8.70;99.90;;;;;;10240014;28;20031;-83
2021/12/26 21:37:20;;;;;;;117.93;44.43;;;-8.70;99.90;;;;;;10232522;28;20027;-85
2021/12/26 21:42:21;;;;;;;126.47;43.70;;;-8.70;99.90;;;;;;10264072;28;20031;-87
2021/12/26 21:47:22;;;;;;;143.40;52.27;;;-8.70;99.90;;;;;;10228747;28;20559;-84
2021/12/26 21:52:23;;;;;;;116.10;42.23;;;-8.70;99.90;;;;;;10227053;28;20071;-88
2021/12/26 21:57:24;;;;;;;109.07;38.27;;;-8.70;99.90;;;;;;10228131;29;20066;-83
2021/12/26 22:02:25;;;;;;;98.13;35.70;;;-8.70;99.90;;;;;;10236050;28;20028;-85
2021/12/26 22:07:26;;;;;;;91.57;35.13;;;-8.60;99.90;;;;;;10248052;28;20480;-85
2021/12/26 22:12:27;;;;;;;97.87;35.20;;;-8.70;99.90;;;;;;10244116;28;20043;-87
2021/12/26 22:17:27;;;;;;;97.97;34.23;;;-8.70;99.90;;;;;;10229377;28;20068;-84
2021/12/26 22:22:29;;;;;;;88.03;34.60;;;-8.60;99.90;;;;;;10252169;28;20058;-84
2021/12/26 22:27:30;;;;;;;105.17;39.10;;;-8.70;99.90;;;;;;10249291;28;20118;-84
2021/12/26 22:32:31;;;;;;;88.73;34.10;;;-8.70;99.90;;;;;;10230409;28;20039;-85
2021/12/26 22:37:32;;;;;;;104.70;39.00;;;-8.70;99.90;;;;;;10249898;28;20058;-84
2021/12/26 22:42:33;;;;;;;105.47;38.63;;;-8.70;99.90;;;;;;10253989;28;20035;-86
2021/12/26 22:47:36;;;;;;;106.43;41.37;;;-8.70;99.90;;;;;;10263205;28;20406;-84
2021/12/26 22:52:36;;;;;;;101.17;36.53;;;-8.70;99.90;;;;;;10254882;28;20094;-83
2021/12/26 22:57:38;;;;;;;103.10;37.67;;;-8.70;99.90;;;;;;10225157;28;20554;-85
2021/12/26 23:02:38;;;;;;;111.73;38.77;;;-8.60;99.90;;;;;;10242121;28;20031;-86
2021/12/26 23:07:40;;;;;;;89.77;32.87;;;-8.60;99.90;;;;;;10248373;28;20483;-83
2021/12/26 23:12:41;;;;;;;97.70;34.77;;;-8.60;99.90;;;;;;10227602;28;20039;-82
2021/12/26 23:17:41;;;;;;;78.93;27.97;;;-8.50;99.90;;;;;;10228502;28;20031;-89
2021/12/26 23:22:42;;;;;;;70.60;27.23;;;-8.40;99.90;;;;;;10239269;28;20130;-86
2021/12/26 23:27:43;;;;;;;71.97;27.50;;;-8.20;99.90;;;;;;10229688;29;20035;-88
2021/12/26 23:32:44;;;;;;;106.80;32.97;;;-8.10;99.90;;;;;;10252624;28;20043;-83
2021/12/26 23:37:46;;;;;;;89.93;34.20;;;-8.20;99.90;;;;;;10277447;28;20122;-84
2021/12/26 23:42:48;;;;;;;94.47;33.13;;;-8.30;99.90;;;;;;10249096;28;20090;-84
2021/12/26 23:47:50;;;;;;;78.43;29.60;;;-8.40;99.90;;;;;;10271241;28;20138;-84
2021/12/26 23:52:50;;;;;;;74.07;28.57;;;-8.40;99.90;;;;;;10279721;28;20089;-84
2021/12/26 23:57:51;;;;;;;77.27;26.33;;;-8.40;99.90;;;;;;10277719;28;20039;-84
